Time;durP1;ratioP1;P1;durP2;ratioP2;P2;SDS_P1;SDS_P2;PMS_P1;PMS_P2;Temp;Humidity;BMP_temperature;BMP_pressure;BME280_temperature;BME280_humidity;BME280_pressure;Samples;Min_cycle;Max_cycle;Signal;HPM_P1;HPM_P2
2022/05/14 00:01:17;;;;;;;10.82;6.75;;;19.30;99.90;;;;;;4974791;28;20035;-73
2022/05/14 00:03:46;;;;;;;13.73;8.45;;;19.20;99.90;;;;;;4992921;28;20066;-74
2022/05/14 00:06:19;;;;;;;21.67;9.30;;;19.20;99.90;;;;;;4990005;28;20449;-77
2022/05/14 00:08:48;;;;;;;18.65;8.93;;;19.20;99.90;;;;;;4990534;28;20035;-77
2022/05/14 00:14:03;;;;;;;11.77;8.00;;;19.20;99.90;;;;;;4993040;28;20507;-76
2022/05/14 00:16:32;;;;;;;12.02;7.70;;;19.20;99.90;;;;;;4989312;28;20050;-75
2022/05/14 00:19:01;;;;;;;12.25;6.97;;;19.30;99.90;;;;;;4985137;28;20077;-77
2022/05/14 00:21:29;;;;;;;10.07;6.80;;;19.30;99.90;;;;;;4989157;28;20022;-75
2022/05/14 00:23:58;;;;;;;10.80;6.00;;;19.30;99.90;;;;;;4988933;28;20041;-75
2022/05/14 00:26:26;;;;;;;8.98;5.78;;;19.40;99.90;;;;;;4986476;28;20022;-76
2022/05/14 00:28:54;;;;;;;10.52;6.97;;;19.50;99.90;;;;;;4989168;28;20113;-75
2022/05/14 00:31:22;;;;;;;10.13;6.35;;;19.60;99.90;;;;;;4990741;28;20585;-76
2022/05/14 00:33:49;;;;;;;9.68;5.82;;;19.60;99.90;;;;;;4992015;28;20511;-75
2022/05/14 00:36:17;;;;;;;11.07;6.45;;;19.60;99.90;;;;;;4989512;28;20046;-75
2022/05/14 00:38:44;;;;;;;12.93;6.95;;;19.60;99.90;;;;;;4991699;28;20030;-77
2022/05/14 00:41:12;;;;;;;9.48;6.00;;;19.70;99.90;;;;;;4987794;28;20149;-77
2022/05/14 00:43:55;;;;;;;6.95;4.32;;;19.70;99.90;;;;;;4991021;28;20110;-76
2022/05/14 00:46:46;;;;;;;7.57;5.13;;;19.70;99.90;;;;;;4985558;28;20026;-76
2022/05/14 00:49:14;;;;;;;9.52;6.25;;;19.80;99.90;;;;;;4981990;28;20038;-76
2022/05/14 00:51:45;;;;;;;6.72;5.13;;;19.90;99.90;;;;;;4987265;28;20042;-77
2022/05/14 00:54:19;;;;;;;8.23;5.97;;;19.90;99.90;;;;;;4985012;28;20038;-75
2022/05/14 00:57:01;;;;;;;9.15;6.93;;;20.00;99.90;;;;;;4985446;28;20034;-75
2022/05/14 00:59:29;;;;;;;8.10;5.28;;;20.00;99.90;;;;;;4990019;28;20031;-75
2022/05/14 01:01:58;;;;;;;9.15;6.00;;;20.10;99.90;;;;;;4990050;28;20507;-76
2022/05/14 01:04:27;;;;;;;9.85;7.03;;;20.10;99.90;;;;;;4989973;28;20532;-76
2022/05/14 01:07:07;;;;;;;8.30;6.05;;;20.20;99.90;;;;;;4988367;28;20041;-76
2022/05/14 01:09:38;;;;;;;7.38;5.03;;;20.20;99.90;;;;;;4990662;28;20539;-77
2022/05/14 01:12:06;;;;;;;8.75;6.43;;;20.30;99.90;;;;;;4989483;28;20078;-75
2022/05/14 01:14:33;;;;;;;7.45;5.22;;;20.60;99.90;;;;;;4991232;28;20410;-73
2022/05/14 01:17:01;;;;;;;7.85;6.00;;;20.80;99.90;;;;;;4989030;28;20034;-76
2022/05/14 01:19:28;;;;;;;7.07;5.18;;;20.90;99.90;;;;;;4989058;28;20487;-77
2022/05/14 01:22:25;;;;;;;8.05;6.20;;;20.90;99.90;;;;;;4989011;28;20061;-73
2022/05/14 01:28:16;;;;;;;7.00;5.70;;;21.10;99.90;;;;;;4975747;28;20141;-76
2022/05/14 01:30:57;;;;;;;7.47;5.90;;;21.30;99.90;;;;;;4988498;28;20026;-75
2022/05/14 01:33:24;;;;;;;8.13;5.72;;;21.40;99.90;;;;;;4972009;28;20054;-75
2022/05/14 01:35:52;;;;;;;6.85;5.45;;;21.70;99.90;;;;;;4985052;28;20092;-77
2022/05/14 01:38:22;;;;;;;7.07;5.85;;;21.90;99.90;;;;;;4963321;28;20306;-76
2022/05/14 01:40:49;;;;;;;7.25;6.13;;;22.20;99.90;;;;;;4993686;28;20385;-75
2022/05/14 01:43:17;;;;;;;6.93;5.45;;;22.60;99.90;;;;;;4990581;28;20039;-75
2022/05/14 01:45:45;;;;;;;6.55;5.82;;;23.30;99.90;;;;;;4991990;28;20089;-73
2022/05/14 01:48:13;;;;;;;6.25;5.03;;;23.80;99.90;;;;;;4992783;28;20026;-75
2022/05/14 01:50:41;;;;;;;6.70;5.40;;;24.10;99.90;;;;;;4994827;28;20407;-75
2022/05/14 01:53:10;;;;;;;6.18;4.93;;;24.70;99.90;;;;;;4992310;28;20126;-74
2022/05/14 01:55:38;;;;;;;5.47;4.97;;;25.30;99.90;;;;;;4992163;28;20022;-75
2022/05/14 01:58:36;;;;;;;5.95;4.93;;;25.60;99.90;;;;;;4992249;28;20038;-75
2022/05/14 02:00:54;;;;;;;5.93;4.70;;;26.00;99.90;;;;;;4992777;28;20128;-74
2022/05/14 02:03:21;;;;;;;5.30;4.75;;;26.20;99.90;;;;;;4992636;28;20627;-74
2022/05/14 02:05:49;;;;;;;5.10;4.05;;;26.30;99.90;;;;;;4984898;28;20038;-73
2022/05/14 02:08:19;;;;;;;4.53;3.67;;;27.10;99.90;;;;;;4994422;28;20580;-75
2022/05/14 02:10:46;;;;;;;6.15;4.35;;;27.80;99.90;;;;;;4992993;28;20030;-74
2022/05/14 02:13:13;;;;;;;4.78;4.22;;;28.10;99.90;;;;;;4993262;28;20496;-75
2022/05/14 02:15:41;;;;;;;7.57;4.80;;;28.20;99.90;;;;;;4991305;28;20113;-76
2022/05/14 02:18:08;;;;;;;6.13;4.90;;;27.80;99.90;;;;;;4992110;28;20034;-77
2022/05/14 02:20:36;;;;;;;3.75;3.45;;;28.10;99.90;;;;;;4994412;28;20023;-76
2022/05/14 02:23:03;;;;;;;4.47;4.00;;;28.30;99.90;;;;;;4961599;28;20033;-76
2022/05/14 02:25:30;;;;;;;4.78;3.42;;;28.10;99.90;;;;;;4989302;28;20029;-76
2022/05/14 02:27:58;;;;;;;7.60;4.20;;;28.10;99.90;;;;;;4989357;28;20037;-76
2022/05/14 02:30:25;;;;;;;4.05;3.63;;;28.50;99.90;;;;;;4976804;28;20033;-75
2022/05/14 02:32:52;;;;;;;4.20;3.67;;;28.80;99.90;;;;;;4991167;28;20042;-75
2022/05/14 02:35:20;;;;;;;6.15;4.40;;;28.60;99.90;;;;;;4991813;28;20023;-76
2022/05/14 02:37:47;;;;;;;4.47;3.50;;;28.40;99.90;;;;;;4990409;28;20408;-75
2022/05/14 02:40:15;;;;;;;3.45;2.95;;;28.30;99.90;;;;;;4994128;28;20061;-75
2022/05/14 02:42:42;;;;;;;4.30;3.58;;;28.20;99.90;;;;;;4992188;28;20149;-76
2022/05/14 02:45:11;;;;;;;4.38;3.25;;;28.50;99.90;;;;;;4992267;28;20172;-77
2022/05/14 02:47:38;;;;;;;4.28;3.65;;;28.50;99.90;;;;;;4990295;28;20031;-74
2022/05/14 02:50:08;;;;;;;4.05;3.60;;;28.40;99.90;;;;;;4993804;28;20568;-73
2022/05/14 02:52:36;;;;;;;4.00;3.30;;;28.40;99.90;;;;;;4989989;28;20038;-74
2022/05/14 02:55:05;;;;;;;4.03;3.63;;;28.60;99.90;;;;;;4992715;28;20495;-74
2022/05/14 02:57:32;;;;;;;4.97;3.22;;;28.70;99.90;;;;;;4987087;28;20077;-73
2022/05/14 03:00:00;;;;;;;4.22;3.25;;;28.80;99.90;;;;;;4993905;28;20030;-74
2022/05/14 03:02:27;;;;;;;3.42;2.88;;;28.90;99.90;;;;;;4973726;28;20043;-74
2022/05/14 03:04:54;;;;;;;4.18;2.80;;;28.50;99.90;;;;;;4964935;28;20035;-74
2022/05/14 03:07:22;;;;;;;4.38;3.53;;;28.50;99.90;;;;;;4970848;28;20034;-74
2022/05/14 03:09:49;;;;;;;4.20;3.67;;;28.30;99.90;;;;;;4974117;28;20030;-75
2022/05/14 03:12:17;;;;;;;3.67;2.92;;;28.40;99.90;;;;;;4972513;28;20057;-74
2022/05/14 03:14:44;;;;;;;3.63;3.25;;;28.40;99.90;;;;;;4973550;28;20030;-74
2022/05/14 03:17:11;;;;;;;6.53;4.00;;;28.00;99.90;;;;;;4970750;28;20113;-74
2022/05/14 03:19:39;;;;;;;4.07;3.30;;;27.90;99.90;;;;;;4973921;28;20380;-74
2022/05/14 03:22:06;;;;;;;4.22;3.28;;;28.10;99.90;;;;;;4966953;28;20023;-74
2022/05/14 03:24:36;;;;;;;4.63;3.20;;;28.10;99.90;;;;;;4968699;28;20041;-74
2022/05/14 03:27:05;;;;;;;2.67;2.47;;;28.10;99.90;;;;;;4970877;28;20039;-74
2022/05/14 03:29:33;;;;;;;3.35;2.92;;;28.00;99.90;;;;;;4972832;28;20038;-73
2022/05/14 03:32:01;;;;;;;4.63;3.35;;;27.80;99.90;;;;;;4971507;28;20097;-74
2022/05/14 03:34:29;;;;;;;3.33;2.63;;;27.60;99.90;;;;;;4972575;28;20030;-73
2022/05/14 03:36:56;;;;;;;3.42;2.78;;;27.30;99.90;;;;;;4968360;28;20042;-74
2022/05/14 03:39:23;;;;;;;3.58;2.83;;;27.10;99.90;;;;;;4967333;28;20038;-74
2022/05/14 03:41:51;;;;;;;4.60;2.60;;;27.00;99.90;;;;;;4961292;28;22462;-74
2022/05/14 03:44:18;;;;;;;3.72;2.88;;;26.80;99.90;;;;;;4963991;28;20105;-74
2022/05/14 03:46:46;;;;;;;4.55;2.97;;;26.60;99.90;;;;;;4964785;28;20031;-73
2022/05/14 03:49:14;;;;;;;3.33;3.00;;;26.30;99.90;;;;;;4963820;28;20031;-73
2022/05/14 03:51:41;;;;;;;4.07;3.15;;;26.10;99.90;;;;;;4964168;28;20038;-74
2022/05/14 03:54:09;;;;;;;3.03;2.63;;;26.10;99.90;;;;;;4966162;28;20038;-74
2022/05/14 03:56:39;;;;;;;3.78;3.25;;;26.00;99.90;;;;;;4963032;28;20019;-73
2022/05/14 03:59:08;;;;;;;3.22;2.88;;;25.90;99.90;;;;;;4962416;28;20046;-75
2022/05/14 04:01:36;;;;;;;3.80;3.40;;;25.70;99.90;;;;;;4975761;28;20042;-74
2022/05/14 04:04:04;;;;;;;4.63;3.03;;;25.60;99.90;;;;;;4986166;28;20060;-75
2022/05/14 04:06:32;;;;;;;4.57;2.92;;;25.40;99.90;;;;;;4990279;28;20038;-74
2022/05/14 04:08:59;;;;;;;4.28;3.00;;;25.30;99.90;;;;;;4990076;28;20030;-74
2022/05/14 04:11:27;;;;;;;3.92;3.20;;;25.20;99.90;;;;;;4991636;28;20027;-74
2022/05/14 04:13:56;;;;;;;4.45;3.85;;;25.00;99.90;;;;;;4990450;28;20397;-75
2022/05/14 04:16:24;;;;;;;4.70;2.88;;;25.00;99.90;;;;;;4989013;28;20811;-74
2022/05/14 04:18:51;;;;;;;3.60;2.72;;;24.90;99.90;;;;;;4991242;28;20031;-74
2022/05/14 04:21:19;;;;;;;3.08;2.70;;;24.90;99.90;;;;;;4991340;28;20465;-75
2022/05/14 04:23:46;;;;;;;3.15;2.85;;;24.80;99.90;;;;;;4990886;28;20030;-73
2022/05/14 04:26:14;;;;;;;3.58;3.08;;;24.90;99.90;;;;;;4989316;28;20022;-74
2022/05/14 04:28:41;;;;;;;3.53;3.17;;;24.80;99.90;;;;;;4989572;28;20028;-75
2022/05/14 04:31:08;;;;;;;4.18;3.35;;;24.80;99.90;;;;;;4984272;28;20381;-74
2022/05/14 04:33:36;;;;;;;2.72;2.53;;;24.70;99.90;;;;;;4985664;28;20401;-75
2022/05/14 04:36:03;;;;;;;4.32;2.88;;;24.70;99.90;;;;;;4984770;28;20033;-75
2022/05/14 04:38:31;;;;;;;3.40;3.10;;;24.70;99.90;;;;;;4992018;28;20057;-74
2022/05/14 04:40:58;;;;;;;3.42;2.97;;;24.60;99.90;;;;;;4988551;28;20496;-75
2022/05/14 04:43:26;;;;;;;3.25;2.80;;;24.60;99.90;;;;;;4990911;28;20037;-75
2022/05/14 04:45:54;;;;;;;3.28;2.83;;;24.60;99.90;;;;;;4988222;28;20493;-74
2022/05/14 04:48:21;;;;;;;3.47;2.88;;;24.70;99.90;;;;;;4990059;28;20425;-75
2022/05/14 04:50:48;;;;;;;5.05;2.95;;;24.60;99.90;;;;;;4986386;28;20030;-74
2022/05/14 04:53:16;;;;;;;4.18;3.35;;;24.70;99.90;;;;;;4989241;28;20046;-73
2022/05/14 04:55:44;;;;;;;4.05;2.40;;;24.60;99.90;;;;;;4986769;28;20037;-73
2022/05/14 04:58:12;;;;;;;3.28;2.65;;;24.60;99.90;;;;;;4989276;28;20030;-74
2022/05/14 05:00:41;;;;;;;4.53;2.88;;;24.60;99.90;;;;;;4989657;28;20057;-73
2022/05/14 05:03:17;;;;;;;4.07;2.38;;;24.50;99.90;;;;;;4990501;28;20382;-74
2022/05/14 05:06:01;;;;;;;4.18;3.05;;;24.50;99.90;;;;;;4979113;28;20034;-72
2022/05/14 05:08:31;;;;;;;3.63;2.92;;;24.50;99.90;;;;;;4991448;28;20061;-71
2022/05/14 05:10:59;;;;;;;4.22;2.60;;;24.50;99.90;;;;;;4985540;28;20026;-72
2022/05/14 05:13:29;;;;;;;3.60;3.03;;;24.50;99.90;;;;;;4989248;28;20038;-73
2022/05/14 05:15:57;;;;;;;3.15;2.50;;;24.50;99.90;;;;;;4986973;28;20080;-73
2022/05/14 05:18:24;;;;;;;3.97;2.80;;;24.50;99.90;;;;;;4988828;28;20177;-73
2022/05/14 05:20:54;;;;;;;4.60;2.92;;;24.60;99.90;;;;;;4989475;28;20381;-76
2022/05/14 05:23:24;;;;;;;3.13;2.70;;;24.60;99.90;;;;;;4989409;28;20385;-75
2022/05/14 05:25:52;;;;;;;3.85;2.53;;;24.60;99.90;;;;;;4989908;28;20077;-75
2022/05/14 05:28:19;;;;;;;4.60;2.80;;;24.60;99.90;;;;;;4987560;28;20060;-72
2022/05/14 05:30:47;;;;;;;4.65;2.47;;;24.70;99.90;;;;;;4986942;28;20030;-73
2022/05/14 05:33:17;;;;;;;3.80;2.58;;;24.70;99.90;;;;;;4988277;28;20077;-73
2022/05/14 05:35:45;;;;;;;3.08;2.50;;;24.90;99.90;;;;;;4987844;28;20030;-73
2022/05/14 05:38:12;;;;;;;3.08;1.95;;;25.00;99.90;;;;;;4990213;28;20038;-73
2022/05/14 05:40:40;;;;;;;2.58;1.80;;;25.10;99.90;;;;;;4991292;28;20124;-73
2022/05/14 05:43:09;;;;;;;2.72;1.30;;;25.20;99.90;;;;;;4986951;28;20030;-72
2022/05/14 05:45:38;;;;;;;1.92;1.30;;;25.30;99.90;;;;;;4988249;28;20038;-74
2022/05/14 05:48:06;;;;;;;2.20;1.42;;;25.30;99.90;;;;;;4989503;28;20168;-74
2022/05/14 05:50:34;;;;;;;2.05;1.10;;;25.40;99.90;;;;;;4990698;28;20033;-75
2022/05/14 05:53:01;;;;;;;1.75;1.02;;;25.50;99.90;;;;;;4985291;28;20050;-74
2022/05/14 05:58:17;;;;;;;4.38;2.50;;;25.70;99.90;;;;;;4991213;28;20061;-75
2022/05/14 06:00:45;;;;;;;5.20;2.47;;;25.70;99.90;;;;;;4987513;28;20714;-73
2022/05/14 06:03:13;;;;;;;6.53;3.15;;;25.70;99.90;;;;;;4967616;28;20089;-73
2022/05/14 06:05:41;;;;;;;3.15;2.13;;;25.70;99.90;;;;;;4960456;28;20027;-73
2022/05/14 06:08:19;;;;;;;17.70;3.75;;;25.50;99.90;;;;;;4970362;28;20065;-73
2022/05/14 06:10:46;;;;;;;5.15;3.45;;;25.50;99.90;;;;;;4970050;28;20034;-74
2022/05/14 06:13:14;;;;;;;3.33;2.50;;;25.50;99.90;;;;;;4968103;28;20569;-74
2022/05/14 06:15:42;;;;;;;3.33;2.58;;;25.40;99.90;;;;;;4971723;28;20019;-73
2022/05/14 06:18:10;;;;;;;3.60;2.58;;;25.40;99.90;;;;;;4970239;28;20030;-74
2022/05/14 06:20:39;;;;;;;4.00;3.10;;;25.30;99.90;;;;;;4967964;28;20401;-73
2022/05/14 06:23:08;;;;;;;3.15;2.85;;;25.30;99.90;;;;;;4970684;28;20113;-73
2022/05/14 06:25:36;;;;;;;3.15;2.63;;;25.10;99.90;;;;;;4972714;28;21750;-74
2022/05/14 06:28:03;;;;;;;3.25;2.80;;;25.00;99.90;;;;;;4972983;28;20113;-74
2022/05/14 06:30:32;;;;;;;3.08;2.60;;;24.90;99.90;;;;;;4975055;28;20110;-74
2022/05/14 06:33:04;;;;;;;4.97;2.50;;;24.80;99.90;;;;;;4970863;28;20483;-74
2022/05/14 06:35:32;;;;;;;2.72;2.40;;;24.60;99.90;;;;;;4972089;28;20035;-73
2022/05/14 06:38:01;;;;;;;4.65;3.03;;;24.50;99.90;;;;;;4973075;28;20041;-74
2022/05/14 06:40:28;;;;;;;4.07;3.15;;;24.40;99.90;;;;;;4972526;28;20165;-74
2022/05/14 06:42:56;;;;;;;5.28;2.97;;;24.20;99.90;;;;;;4970885;28;20712;-73
2022/05/14 06:45:24;;;;;;;4.18;2.90;;;24.10;99.90;;;;;;4972075;28;20851;-73
2022/05/14 06:47:53;;;;;;;3.70;2.67;;;23.90;99.90;;;;;;4972226;28;20019;-74
2022/05/14 06:50:20;;;;;;;6.05;3.55;;;23.70;99.90;;;;;;4970039;28;20041;-75
2022/05/14 06:52:51;;;;;;;3.15;2.67;;;23.60;99.90;;;;;;4968794;28;20619;-73
2022/05/14 06:55:22;;;;;;;3.75;3.03;;;23.50;99.90;;;;;;4955573;28;20035;-73
2022/05/14 06:57:50;;;;;;;3.38;2.50;;;23.40;99.90;;;;;;4969986;28;20503;-74
2022/05/14 07:00:19;;;;;;;3.50;3.20;;;23.30;99.90;;;;;;4972625;28;20034;-73
2022/05/14 07:02:47;;;;;;;4.15;2.90;;;23.20;99.90;;;;;;4970630;28;20106;-73
2022/05/14 07:08:01;;;;;;;4.53;3.45;;;23.00;99.90;;;;;;4971716;28;20030;-73
2022/05/14 07:10:28;;;;;;;4.13;2.92;;;22.90;99.90;;;;;;4960845;28;20074;-73
2022/05/14 07:12:56;;;;;;;5.07;3.60;;;22.90;99.90;;;;;;4955867;28;20039;-74
2022/05/14 07:15:24;;;;;;;6.03;3.38;;;22.80;99.90;;;;;;4957080;28;20030;-73
2022/05/14 07:17:51;;;;;;;4.50;3.42;;;22.70;99.90;;;;;;4971486;28;20386;-73
2022/05/14 07:20:19;;;;;;;3.78;3.38;;;22.70;99.90;;;;;;4974013;28;20026;-74
2022/05/14 07:22:47;;;;;;;4.72;3.85;;;22.60;99.90;;;;;;4971167;28;20046;-74
2022/05/14 07:25:14;;;;;;;5.85;4.38;;;22.60;99.90;;;;;;4974150;28;20065;-74
2022/05/14 07:27:41;;;;;;;6.10;4.35;;;22.50;99.90;;;;;;4962561;28;20724;-74
2022/05/14 07:30:09;;;;;;;7.47;4.57;;;22.50;99.90;;;;;;4966279;28;20089;-74
2022/05/14 07:32:37;;;;;;;4.82;4.30;;;22.40;99.90;;;;;;4966271;28;20473;-73
2022/05/14 07:35:04;;;;;;;6.80;3.85;;;22.40;99.90;;;;;;4969642;28;20062;-73
2022/05/14 07:37:35;;;;;;;7.28;4.05;;;22.40;99.90;;;;;;4966414;28;20065;-73
2022/05/14 07:40:07;;;;;;;5.22;4.63;;;22.30;99.90;;;;;;4969677;28;20046;-72
2022/05/14 07:42:41;;;;;;;7.40;5.78;;;22.40;99.90;;;;;;4970364;28;20066;-74
2022/05/14 07:45:11;;;;;;;7.65;6.25;;;22.30;99.90;;;;;;4972419;28;20027;-74
2022/05/14 07:47:39;;;;;;;7.30;5.68;;;22.30;99.90;;;;;;4969633;28;20173;-72
2022/05/14 07:50:08;;;;;;;5.30;4.70;;;22.20;99.90;;;;;;4972079;28;20034;-73
2022/05/14 07:52:38;;;;;;;5.72;5.15;;;22.10;99.90;;;;;;4970527;28;20085;-74
2022/05/14 07:55:07;;;;;;;5.50;4.15;;;22.00;99.90;;;;;;4968087;28;20030;-73
2022/05/14 07:57:35;;;;;;;6.82;4.50;;;22.00;99.90;;;;;;4969923;28;20034;-73
2022/05/14 08:00:04;;;;;;;9.55;6.07;;;22.00;99.90;;;;;;4967079;28;20558;-73
2022/05/14 08:02:34;;;;;;;8.52;7.35;;;22.00;99.90;;;;;;4986655;28;20063;-73
2022/05/14 08:05:04;;;;;;;21.70;18.20;;;21.90;99.90;;;;;;4983893;28;20098;-73
2022/05/14 08:07:32;;;;;;;30.23;26.08;;;21.80;99.90;;;;;;4983128;28;20030;-73
2022/05/14 08:10:00;;;;;;;29.73;24.75;;;21.80;99.90;;;;;;4992550;28;20023;-75
2022/05/14 08:12:34;;;;;;;23.48;20.52;;;21.70;99.90;;;;;;4989256;28;20041;-74
2022/05/14 08:15:02;;;;;;;16.15;14.00;;;21.70;99.90;;;;;;4989967;28;20034;-75
2022/05/14 08:17:29;;;;;;;13.55;10.30;;;21.70;99.90;;;;;;4988857;28;20018;-74
2022/05/14 08:19:57;;;;;;;14.32;10.52;;;21.60;99.90;;;;;;4986981;28;20144;-74
2022/05/14 08:25:10;;;;;;;8.18;6.55;;;21.60;99.90;;;;;;4992598;28;20032;-75
2022/05/14 08:27:55;;;;;;;7.95;6.50;;;21.50;99.90;;;;;;4986391;28;20468;-75
2022/05/14 08:30:27;;;;;;;9.43;7.22;;;21.50;99.90;;;;;;4987342;28;20038;-74
2022/05/14 08:32:54;;;;;;;10.27;7.95;;;21.40;99.90;;;;;;4985349;28;20046;-75
2022/05/14 08:35:22;;;;;;;10.68;7.30;;;21.40;99.90;;;;;;4988625;28;20030;-74
2022/05/14 08:37:51;;;;;;;6.47;5.40;;;21.40;99.90;;;;;;4982980;28;20041;-74
2022/05/14 08:40:23;;;;;;;8.55;6.50;;;21.30;99.90;;;;;;4985335;28;20026;-73
2022/05/14 08:42:54;;;;;;;7.68;6.38;;;21.30;99.90;;;;;;4993470;28;20022;-74
2022/05/14 08:45:24;;;;;;;8.88;6.93;;;21.30;99.90;;;;;;4990886;28;20061;-74
2022/05/14 08:48:00;;;;;;;11.85;7.03;;;21.20;99.90;;;;;;4987971;28;20026;-75
2022/05/14 08:50:55;;;;;;;10.82;7.30;;;21.20;99.90;;;;;;4990534;28;20072;-74
2022/05/14 08:53:25;;;;;;;8.95;6.55;;;21.20;99.90;;;;;;4991123;28;20074;-75
2022/05/14 08:56:13;;;;;;;8.02;5.90;;;21.10;99.90;;;;;;4988410;28;20543;-74
2022/05/14 08:59:14;;;;;;;9.63;6.40;;;21.10;99.90;;;;;;4989607;28;20043;-74
2022/05/14 09:01:45;;;;;;;10.93;6.82;;;21.10;99.90;;;;;;4988871;28;20497;-75
2022/05/14 09:04:17;;;;;;;10.38;7.78;;;21.10;99.90;;;;;;4988671;28;20456;-74
2022/05/14 09:06:45;;;;;;;9.60;7.35;;;21.10;99.90;;;;;;4976542;28;20034;-75
2022/05/14 09:09:13;;;;;;;11.45;8.15;;;21.10;99.90;;;;;;4991403;28;20027;-75
2022/05/14 09:11:55;;;;;;;9.50;7.22;;;21.10;99.90;;;;;;4988403;28;20038;-75
2022/05/14 09:14:39;;;;;;;11.85;8.98;;;21.10;99.90;;;;;;4990133;28;20118;-75
2022/05/14 09:17:08;;;;;;;11.75;8.82;;;21.00;99.90;;;;;;4989819;28;20066;-74
2022/05/14 09:19:43;;;;;;;12.35;7.93;;;21.00;99.90;;;;;;4989960;28;20026;-74
2022/05/14 09:22:19;;;;;;;;;;;21.00;99.90;;;;;;4989747;28;20090;-74
2022/05/14 09:24:52;;;;;;;14.40;8.75;;;21.00;99.90;;;;;;4990186;28;19909;-73
2022/05/14 09:27:41;;;;;;;13.10;9.55;;;20.90;99.90;;;;;;4987404;28;20089;-74
2022/05/14 09:30:14;;;;;;;16.00;10.43;;;20.90;99.90;;;;;;4989532;28;20077;-73
2022/05/14 09:32:45;;;;;;;12.40;9.95;;;20.90;99.90;;;;;;4986772;28;20046;-74
2022/05/14 09:35:25;;;;;;;13.25;9.60;;;20.80;99.90;;;;;;4971687;28;20065;-73
2022/05/14 09:38:06;;;;;;;12.35;8.30;;;20.70;99.90;;;;;;4984093;28;20449;-73
2022/05/14 09:40:34;;;;;;;11.93;8.60;;;20.70;99.90;;;;;;4989479;28;20037;-73
2022/05/14 09:43:17;;;;;;;12.52;8.70;;;20.60;99.90;;;;;;4988579;28;20125;-73
2022/05/14 09:46:00;;;;;;;11.35;9.23;;;20.60;99.90;;;;;;4988823;28;20410;-73
2022/05/14 09:48:37;;;;;;;10.30;7.68;;;20.60;99.90;;;;;;4977735;28;20033;-74
2022/05/14 09:51:09;;;;;;;12.10;9.35;;;20.50;99.90;;;;;;4987733;28;20038;-75
2022/05/14 09:53:41;;;;;;;14.48;10.80;;;20.50;99.90;;;;;;4989418;28;20038;-75
2022/05/14 09:56:26;;;;;;;16.00;10.05;;;20.50;99.90;;;;;;4988607;28;20027;-73
2022/05/14 09:59:27;;;;;;;14.48;10.38;;;20.50;99.90;;;;;;4992413;28;20513;-73
2022/05/14 10:02:14;;;;;;;11.57;9.35;;;20.50;99.90;;;;;;4991648;28;20062;-74
2022/05/14 10:04:59;;;;;;;14.02;9.43;;;20.50;99.90;;;;;;4965214;28;20045;-73
2022/05/14 10:07:47;;;;;;;11.77;9.30;;;20.50;99.90;;;;;;4986917;28;20484;-74
2022/05/14 10:10:41;;;;;;;12.00;9.65;;;20.50;99.90;;;;;;4984251;28;20478;-74
2022/05/14 10:13:37;;;;;;;14.35;9.52;;;20.50;99.90;;;;;;4991813;28;20570;-74
2022/05/14 10:16:39;;;;;;;14.15;10.00;;;20.50;99.90;;;;;;4954625;28;20472;-74
2022/05/14 10:19:54;;;;;;;16.83;10.23;;;20.40;99.90;;;;;;4991035;28;20034;-73
2022/05/14 10:28:36;;;;;;;16.35;10.43;;;20.30;99.90;;;;;;4987405;28;20025;-74
2022/05/14 10:31:25;;;;;;;;;;;20.20;99.90;;;;;;4985616;28;20034;-74
2022/05/14 10:33:57;;;;;;;15.27;9.73;;;20.20;99.90;;;;;;4985132;28;20017;-74
2022/05/14 10:36:36;;;;;;;14.95;9.90;;;20.10;99.90;;;;;;4991371;28;20038;-73
2022/05/14 10:39:32;;;;;;;16.50;9.38;;;20.10;99.90;;;;;;4988555;28;20050;-74
2022/05/14 10:42:41;;;;;;;12.95;9.63;;;20.10;99.90;;;;;;4992090;28;20473;-73
2022/05/14 10:45:15;;;;;;;15.20;9.43;;;20.00;99.90;;;;;;4973661;28;20085;-73
2022/05/14 10:47:50;;;;;;;14.10;9.30;;;20.00;99.90;;;;;;4991734;28;20424;-74
2022/05/14 10:50:20;;;;;;;14.30;9.77;;;20.00;99.90;;;;;;4985620;28;20041;-73
2022/05/14 10:52:54;;;;;;;17.75;9.55;;;20.00;99.90;;;;;;4990204;28;20101;-73
2022/05/14 10:55:31;;;;;;;12.80;9.75;;;19.90;99.90;;;;;;4992461;28;20096;-74
2022/05/14 10:58:07;;;;;;;16.42;11.68;;;19.90;99.90;;;;;;4990373;28;20056;-73
2022/05/14 11:00:43;;;;;;;13.90;9.65;;;19.90;99.90;;;;;;4990775;28;20138;-73
2022/05/14 11:03:24;;;;;;;14.55;9.57;;;19.80;99.90;;;;;;4991307;28;20044;-74
2022/05/14 11:06:11;;;;;;;13.68;8.90;;;19.80;99.90;;;;;;4985104;28;20041;-73
2022/05/14 11:08:44;;;;;;;12.13;9.77;;;19.70;99.90;;;;;;4988475;28;20050;-74
2022/05/14 11:11:17;;;;;;;15.63;10.50;;;19.70;99.90;;;;;;4987047;28;20046;-73
2022/05/14 11:14:06;;;;;;;16.52;10.90;;;19.70;99.90;;;;;;4991974;28;20416;-73
2022/05/14 11:16:46;;;;;;;18.27;11.57;;;19.70;99.90;;;;;;4989889;28;20482;-73
2022/05/14 11:19:34;;;;;;;20.30;11.95;;;19.70;99.90;;;;;;4990901;28;20031;-72
2022/05/14 11:22:02;;;;;;;18.83;11.85;;;19.60;99.90;;;;;;4990167;28;20030;-73
2022/05/14 11:24:55;;;;;;;16.52;11.55;;;19.60;99.90;;;;;;4991265;28;20022;-73
2022/05/14 11:27:37;;;;;;;18.95;12.48;;;19.60;99.90;;;;;;4982186;28;20042;-73
2022/05/14 11:30:14;;;;;;;17.23;11.57;;;19.60;99.90;;;;;;4987740;28;20027;-72
2022/05/14 11:32:54;;;;;;;13.35;10.05;;;19.50;99.90;;;;;;4987470;28;20133;-73
2022/05/14 11:35:21;;;;;;;19.90;12.48;;;19.50;99.90;;;;;;4993028;28;20032;-73
2022/05/14 11:37:51;;;;;;;15.88;11.57;;;19.40;99.90;;;;;;4989460;28;20050;-73
2022/05/14 11:40:22;;;;;;;18.30;12.20;;;19.40;99.90;;;;;;4987799;28;20042;-73
2022/05/14 11:42:52;;;;;;;16.55;12.73;;;19.30;99.90;;;;;;4987671;28;20084;-72
2022/05/14 11:45:27;;;;;;;17.75;11.65;;;19.30;99.90;;;;;;4991549;28;20038;-73
2022/05/14 11:48:05;;;;;;;16.58;11.23;;;19.30;99.90;;;;;;4986810;28;20050;-73
2022/05/14 11:50:51;;;;;;;16.73;11.05;;;19.30;99.90;;;;;;4978626;28;20034;-73
2022/05/14 11:53:29;;;;;;;19.15;12.55;;;19.30;99.90;;;;;;4992852;28;20064;-72
2022/05/14 11:56:16;;;;;;;18.02;13.00;;;19.30;99.90;;;;;;4984345;28;20030;-73
2022/05/14 11:59:16;;;;;;;18.23;12.77;;;19.30;99.90;;;;;;4974996;28;20027;-72
2022/05/14 12:01:47;;;;;;;19.95;12.80;;;19.20;99.90;;;;;;4985246;28;20409;-72
2022/05/14 12:04:40;;;;;;;27.35;14.85;;;19.20;99.90;;;;;;4991152;28;20054;-73
2022/05/14 12:07:22;;;;;;;27.85;16.80;;;19.10;99.90;;;;;;4988827;28;20118;-72
2022/05/14 12:10:15;;;;;;;26.30;16.80;;;19.10;99.90;;;;;;4988736;28;20041;-72
2022/05/14 12:12:48;;;;;;;28.50;17.10;;;19.10;99.90;;;;;;4979883;28;20034;-72
2022/05/14 12:15:22;;;;;;;26.50;16.88;;;19.10;99.90;;;;;;4985068;28;20598;-74
2022/05/14 12:17:57;;;;;;;24.40;16.23;;;19.10;99.90;;;;;;4989943;28;20489;-74
2022/05/14 12:20:30;;;;;;;19.75;12.35;;;19.10;99.90;;;;;;4990621;28;20033;-74
2022/05/14 12:23:04;;;;;;;19.25;12.63;;;19.10;99.90;;;;;;4988846;28;20039;-73
2022/05/14 12:25:52;;;;;;;20.08;14.07;;;19.10;99.90;;;;;;4991891;28;20112;-74
2022/05/14 12:28:25;;;;;;;17.50;12.73;;;19.00;99.90;;;;;;4990249;28;20121;-73
2022/05/14 12:34:04;;;;;;;17.95;11.57;;;18.90;99.90;;;;;;4978926;28;20052;-73
2022/05/14 12:36:49;;;;;;;17.13;11.20;;;18.80;99.90;;;;;;4984199;28;20058;-73
2022/05/14 12:39:20;;;;;;;20.27;11.57;;;18.80;99.90;;;;;;4990832;28;20070;-73
2022/05/14 12:41:55;;;;;;;15.45;9.80;;;18.80;99.90;;;;;;4987680;28;20436;-74
2022/05/14 12:44:26;;;;;;;18.55;10.95;;;18.80;99.90;;;;;;4988101;28;20022;-73
2022/05/14 12:46:59;;;;;;;17.63;11.98;;;18.80;99.90;;;;;;4986383;28;20036;-73
2022/05/14 12:49:52;;;;;;;18.45;11.05;;;18.80;99.90;;;;;;4984134;28;20027;-73
2022/05/14 12:52:23;;;;;;;15.23;10.48;;;18.70;99.90;;;;;;4987330;28;20054;-74
2022/05/14 12:54:55;;;;;;;13.95;10.35;;;18.70;99.90;;;;;;4989633;28;20029;-73
2022/05/14 12:57:24;;;;;;;16.70;10.05;;;18.70;99.90;;;;;;4991998;28;20416;-74
2022/05/14 12:59:53;;;;;;;13.48;9.35;;;18.60;99.90;;;;;;4989894;28;20027;-73
2022/05/14 13:02:24;;;;;;;14.13;9.93;;;18.60;99.90;;;;;;4992337;28;20042;-73
2022/05/14 13:05:18;;;;;;;16.38;10.80;;;18.60;99.90;;;;;;4981117;28;20031;-73
2022/05/14 13:08:09;;;;;;;14.95;9.05;;;18.60;99.90;;;;;;4979724;28;20237;-74
2022/05/14 13:10:38;;;;;;;14.05;9.77;;;18.50;99.90;;;;;;4988753;28;20026;-74
2022/05/14 13:13:09;;;;;;;15.93;9.73;;;18.50;99.90;;;;;;4987570;28;20427;-73
2022/05/14 13:15:40;;;;;;;15.70;10.90;;;18.50;99.90;;;;;;4988009;28;20018;-73
2022/05/14 13:18:21;;;;;;;14.93;9.52;;;18.50;99.90;;;;;;4987244;28;20030;-73
2022/05/14 13:21:11;;;;;;;14.55;9.68;;;18.40;99.90;;;;;;4988728;28;20110;-73
2022/05/14 13:23:38;;;;;;;17.52;9.25;;;18.40;99.90;;;;;;4990973;28;20037;-73
2022/05/14 13:26:24;;;;;;;15.55;10.98;;;18.30;99.90;;;;;;4987762;28;20041;-73
2022/05/14 13:28:51;;;;;;;;;;;18.30;99.90;;;;;;4988013;28;20381;-73
2022/05/14 13:31:28;;;;;;;13.50;8.93;;;18.30;99.90;;;;;;4987774;28;20327;-73
2022/05/14 13:37:07;;;;;;;15.73;10.23;;;18.20;99.90;;;;;;4991161;28;20061;-73